Terminal Aerodrome Forecast
Issued by NWS

Home | Current Version | Previous Version | Text Only | Print | Product List | Glossary On
Versions: 1 2 3 4 5 6 7 8 9 10 11 12 13
000
FTUS42 TJSJ 212347
TAFJPS
TAF
TJPS 212347Z 2200/2224 08006KT P6SM FEW030 FEW060
     FM221300 14012KT P6SM VCSH SCT030 SCT060
     FM222200 10007KT P6SM VCTS SCT030CB BKN060
      AMD NOT SKED TIL 220300=

USA.gov is the U.S. government's official web portal to all federal, state and local government web resources and services.